createdAt,value
2023-01-18T00:00:09.949Z,4.37
2023-01-18T00:01:09.928Z,4.31
2023-01-18T00:02:09.943Z,4.32
2023-01-18T00:03:09.904Z,4.31
2023-01-18T00:04:09.891Z,4.37
2023-01-18T00:05:09.976Z,4.34
2023-01-18T00:06:09.883Z,4.42
2023-01-18T00:07:09.842Z,4.31
2023-01-18T00:08:09.847Z,4.38
2023-01-18T00:09:09.858Z,4.32
2023-01-18T00:10:09.836Z,4.41
2023-01-18T00:11:09.804Z,4.35
2023-01-18T00:12:09.799Z,4.37
2023-01-18T00:13:09.794Z,4.31
2023-01-18T00:14:09.787Z,4.34
2023-01-18T00:15:09.777Z,4.38
2023-01-18T00:16:09.808Z,4.34
2023-01-18T00:17:09.762Z,4.32
2023-01-18T00:18:09.731Z,4.34
2023-01-18T00:19:09.726Z,4.35
2023-01-18T00:20:09.749Z,4.40
2023-01-18T00:21:09.704Z,4.38
2023-01-18T00:22:09.688Z,4.35
2023-01-18T00:23:09.684Z,4.34
2023-01-18T00:24:09.667Z,4.40
2023-01-18T00:25:09.667Z,4.37
2023-01-18T00:26:09.670Z,4.38
2023-01-18T00:27:09.638Z,4.31
2023-01-18T00:28:09.657Z,4.38
2023-01-18T00:29:09.610Z,4.44
2023-01-18T00:30:09.599Z,4.42
2023-01-18T00:31:09.599Z,4.35
2023-01-18T00:32:09.607Z,4.40
2023-01-18T00:33:09.575Z,4.35
2023-01-18T00:34:09.563Z,4.32
2023-01-18T00:35:09.557Z,4.35
2023-01-18T00:36:09.555Z,4.40
2023-01-18T00:37:09.534Z,4.35
2023-01-18T00:38:09.522Z,4.30
2023-01-18T00:39:09.513Z,4.41
2023-01-18T00:40:09.498Z,4.37
2023-01-18T00:41:09.507Z,4.41
2023-01-18T00:42:09.499Z,4.37
2023-01-18T00:43:09.471Z,4.34
2023-01-18T00:44:09.447Z,4.42
2023-01-18T00:45:09.450Z,4.37
2023-01-18T00:46:09.512Z,4.38
2023-01-18T00:47:09.450Z,4.42
2023-01-18T00:48:09.434Z,4.35
2023-01-18T00:49:09.416Z,4.38
2023-01-18T00:50:09.395Z,4.40
2023-01-18T00:51:09.394Z,4.42
2023-01-18T00:52:09.383Z,4.35
2023-01-18T00:53:09.374Z,4.38
2023-01-18T00:54:09.342Z,4.42
2023-01-18T00:55:09.337Z,4.41
2023-01-18T00:56:09.348Z,4.42
2023-01-18T00:57:09.323Z,4.48
2023-01-18T00:58:09.316Z,4.44
2023-01-18T00:59:09.312Z,4.48
2023-01-18T01:00:09.304Z,4.45
2023-01-18T01:01:09.385Z,4.38
2023-01-18T01:02:09.401Z,4.49
2023-01-18T01:03:09.269Z,4.42
2023-01-18T01:04:09.269Z,4.40
2023-01-18T01:05:09.237Z,4.44
2023-01-18T01:06:09.393Z,4.49
2023-01-18T01:07:09.205Z,4.41
2023-01-18T01:08:09.202Z,4.35
2023-01-18T01:09:09.216Z,4.38
2023-01-18T01:10:09.191Z,4.45
2023-01-18T01:11:09.168Z,4.40
2023-01-18T01:12:09.162Z,4.44
2023-01-18T01:13:09.139Z,4.45
2023-01-18T01:14:09.130Z,4.45
2023-01-18T01:15:09.202Z,4.44
2023-01-18T01:16:09.110Z,4.41
2023-01-18T01:17:09.111Z,4.37
2023-01-18T01:18:09.093Z,4.42
2023-01-18T01:19:09.087Z,4.38
2023-01-18T01:20:09.086Z,4.44
2023-01-18T01:21:09.086Z,4.48
2023-01-18T01:22:09.068Z,4.44
2023-01-18T01:23:09.041Z,4.44
2023-01-18T01:24:09.037Z,4.45
2023-01-18T01:25:09.015Z,4.40
2023-01-18T01:26:09.057Z,4.45
2023-01-18T01:27:09.008Z,4.40
2023-01-18T01:28:08.991Z,4.42
2023-01-18T01:29:08.990Z,4.44
2023-01-18T01:30:08.967Z,4.45
2023-01-18T01:31:09.045Z,4.50
2023-01-18T01:32:08.956Z,4.49
2023-01-18T01:33:08.945Z,4.45
2023-01-18T01:34:08.919Z,4.48
2023-01-18T01:35:08.921Z,4.48
2023-01-18T01:36:08.932Z,4.50
2023-01-18T01:37:08.915Z,4.45
2023-01-18T01:38:08.893Z,4.45
2023-01-18T01:39:08.905Z,4.50
2023-01-18T01:40:08.874Z,4.45
2023-01-18T01:41:08.893Z,4.49
2023-01-18T01:42:08.866Z,4.42
2023-01-18T01:43:08.824Z,4.49
2023-01-18T01:44:08.811Z,4.53
2023-01-18T01:45:08.848Z,4.48
2023-01-18T01:46:08.850Z,4.53
2023-01-18T01:47:08.792Z,4.53
2023-01-18T01:48:08.789Z,4.52
2023-01-18T01:49:08.768Z,4.53
2023-01-18T01:50:08.746Z,4.52
2023-01-18T01:51:08.749Z,4.53
2023-01-18T01:52:08.755Z,4.52
2023-01-18T01:53:08.728Z,4.53
2023-01-18T01:54:08.727Z,4.56
2023-01-18T01:55:08.696Z,4.56
2023-01-18T01:56:08.690Z,4.53
2023-01-18T01:57:08.701Z,4.49
2023-01-18T01:58:08.666Z,4.53
2023-01-18T01:59:08.651Z,4.49
2023-01-18T02:00:08.639Z,4.52
2023-01-18T02:01:08.816Z,4.50
2023-01-18T02:02:08.809Z,4.49
2023-01-18T02:03:08.634Z,4.55
2023-01-18T02:04:08.600Z,4.55
2023-01-18T02:05:08.589Z,4.55
2023-01-18T02:06:08.588Z,4.50
2023-01-18T02:07:08.577Z,4.56
2023-01-18T02:08:08.586Z,4.56
2023-01-18T02:09:08.544Z,4.52
2023-01-18T02:10:08.556Z,4.50
2023-01-18T02:11:08.524Z,4.66
2023-01-18T02:12:08.525Z,4.59
2023-01-18T02:13:08.618Z,4.66
2023-01-18T02:14:08.516Z,4.62
2023-01-18T02:15:08.492Z,4.62
2023-01-18T02:16:08.472Z,4.62
2023-01-18T02:17:08.476Z,4.58
2023-01-18T02:18:08.463Z,4.62
2023-01-18T02:19:17.441Z,4.60
2023-01-18T02:20:08.435Z,4.56
2023-01-18T02:21:08.418Z,4.62
2023-01-18T02:22:08.425Z,4.62
2023-01-18T02:23:08.398Z,4.60
2023-01-18T02:24:08.404Z,4.58
2023-01-18T02:25:08.399Z,4.50
2023-01-18T02:26:08.367Z,4.53
2023-01-18T02:27:08.416Z,4.50
2023-01-18T02:28:08.354Z,4.56
2023-01-18T02:29:08.366Z,4.45
2023-01-18T02:30:08.325Z,4.55
2023-01-18T02:31:08.387Z,4.49
2023-01-18T02:32:08.299Z,4.59
2023-01-18T02:33:08.292Z,4.44
2023-01-18T02:34:08.298Z,4.48
2023-01-18T02:35:08.266Z,4.58
2023-01-18T02:36:08.281Z,4.56
2023-01-18T02:37:08.255Z,4.55
2023-01-18T02:38:08.228Z,4.56
2023-01-18T02:39:10.639Z,4.56
2023-01-18T02:40:08.252Z,4.56
2023-01-18T02:41:08.231Z,4.55
2023-01-18T02:42:08.188Z,4.59
2023-01-18T02:43:08.182Z,4.58
2023-01-18T02:44:08.199Z,4.53
2023-01-18T02:45:08.173Z,4.58
2023-01-18T02:46:08.263Z,4.58
2023-01-18T02:47:08.144Z,4.59
2023-01-18T02:48:08.146Z,4.59
2023-01-18T02:49:08.126Z,4.62
2023-01-18T02:50:08.114Z,4.60
2023-01-18T02:51:08.214Z,4.62
2023-01-18T02:52:08.119Z,4.59
2023-01-18T02:53:08.102Z,4.62
2023-01-18T02:54:08.069Z,4.62
2023-01-18T02:55:08.067Z,4.62
2023-01-18T02:56:08.064Z,4.56
2023-01-18T02:57:08.036Z,4.62
2023-01-18T02:58:08.070Z,4.63
2023-01-18T02:59:08.010Z,4.62
2023-01-18T03:00:08.016Z,4.59
2023-01-18T03:01:08.146Z,4.59
2023-01-18T03:02:08.098Z,4.59
2023-01-18T03:03:07.972Z,4.56
2023-01-18T03:04:07.983Z,4.62
2023-01-18T03:05:07.954Z,4.58
2023-01-18T03:06:07.947Z,4.60
2023-01-18T03:07:07.934Z,4.62
2023-01-18T03:08:07.921Z,4.56
2023-01-18T03:09:07.938Z,4.67
2023-01-18T03:10:07.947Z,4.63
2023-01-18T03:11:07.895Z,4.53
2023-01-18T03:12:07.893Z,4.59
2023-01-18T03:13:07.856Z,4.59
2023-01-18T03:14:07.875Z,4.59
2023-01-18T03:15:07.833Z,4.62
2023-01-18T03:16:07.906Z,4.63
2023-01-18T03:17:07.822Z,4.58
2023-01-18T03:18:07.813Z,4.66
2023-01-18T03:19:07.806Z,4.67
2023-01-18T03:20:07.913Z,4.68
2023-01-18T03:21:07.769Z,4.60
2023-01-18T03:22:07.763Z,4.67
2023-01-18T03:23:07.789Z,4.68
2023-01-18T03:24:07.780Z,4.67
2023-01-18T03:25:07.737Z,4.70
2023-01-18T03:26:07.727Z,4.59
2023-01-18T03:27:07.713Z,4.68
2023-01-18T03:28:07.806Z,4.71
2023-01-18T03:29:07.726Z,4.67
2023-01-18T03:30:07.703Z,4.70
2023-01-18T03:31:07.694Z,4.67
2023-01-18T03:32:07.673Z,4.70
2023-01-18T03:33:07.651Z,4.68
2023-01-18T03:34:07.633Z,4.59
2023-01-18T03:35:08.411Z,4.59
2023-01-18T03:36:07.616Z,4.62
2023-01-18T03:37:07.601Z,4.68
2023-01-18T03:38:07.591Z,4.56
2023-01-18T03:39:07.589Z,4.62
2023-01-18T03:40:07.576Z,4.62
2023-01-18T03:41:07.588Z,4.62
2023-01-18T03:42:07.559Z,4.62
2023-01-18T03:43:07.577Z,4.59
2023-01-18T03:44:07.567Z,4.59
2023-01-18T03:45:07.554Z,4.68
2023-01-18T03:46:07.514Z,4.68
2023-01-18T03:47:07.523Z,4.60
2023-01-18T03:48:07.491Z,4.63
2023-01-18T03:49:07.496Z,4.60
2023-01-18T03:50:07.473Z,4.60
2023-01-18T03:51:07.456Z,4.73
2023-01-18T03:52:07.447Z,4.70
2023-01-18T03:53:07.457Z,4.73
2023-01-18T03:54:07.424Z,4.71
2023-01-18T03:55:07.420Z,4.70
2023-01-18T03:56:07.407Z,4.74
2023-01-18T03:57:07.399Z,4.68
2023-01-18T03:58:07.414Z,4.71
2023-01-18T03:59:07.406Z,4.74
2023-01-18T04:00:07.400Z,4.68
2023-01-18T04:01:07.495Z,4.73
2023-01-18T04:02:07.491Z,4.70
2023-01-18T04:03:07.389Z,4.70
2023-01-18T04:04:07.360Z,4.67
2023-01-18T04:05:07.308Z,4.67
2023-01-18T04:06:07.298Z,4.71
2023-01-18T04:07:07.303Z,4.66
2023-01-18T04:08:07.276Z,4.75
2023-01-18T04:09:07.266Z,4.74
2023-01-18T04:10:07.279Z,4.74
2023-01-18T04:11:07.271Z,4.67
2023-01-18T04:12:07.244Z,4.60
2023-01-18T04:13:07.218Z,4.73
2023-01-18T04:14:07.212Z,4.71
2023-01-18T04:15:07.236Z,4.68
2023-01-18T04:16:07.299Z,4.71
2023-01-18T04:17:07.211Z,4.73
2023-01-18T04:18:07.185Z,4.73
2023-01-18T04:19:07.161Z,4.73
2023-01-18T04:20:07.183Z,4.73
2023-01-18T04:21:07.146Z,4.63
2023-01-18T04:22:09.649Z,4.73
2023-01-18T04:23:07.114Z,4.70
2023-01-18T04:24:07.106Z,4.62
2023-01-18T04:25:07.098Z,4.73
2023-01-18T04:26:07.098Z,4.77
2023-01-18T04:27:07.097Z,4.71
2023-01-18T04:28:07.085Z,4.70
2023-01-18T04:29:07.083Z,4.71
2023-01-18T04:30:07.046Z,4.62
2023-01-18T04:31:07.064Z,4.73
2023-01-18T04:32:07.039Z,4.68
2023-01-18T04:33:07.014Z,4.67
2023-01-18T04:34:06.993Z,4.66
2023-01-18T04:35:07.051Z,4.70
2023-01-18T04:36:06.983Z,4.75
2023-01-18T04:37:06.966Z,4.73
2023-01-18T04:38:06.993Z,4.68
2023-01-18T04:39:06.954Z,4.74
2023-01-18T04:40:06.933Z,4.74
2023-01-18T04:41:06.939Z,4.78
2023-01-18T04:42:06.924Z,4.75
2023-01-18T04:43:06.930Z,4.75
2023-01-18T04:44:06.897Z,4.82
2023-01-18T04:45:06.885Z,4.82
2023-01-18T04:46:06.881Z,4.74
2023-01-18T04:47:06.862Z,4.77
2023-01-18T04:48:06.895Z,4.75
2023-01-18T04:49:06.837Z,4.77
2023-01-18T04:50:06.824Z,4.84
2023-01-18T04:51:06.815Z,4.73
2023-01-18T04:52:06.812Z,4.73
2023-01-18T04:53:06.832Z,4.78
2023-01-18T04:54:06.797Z,4.86
2023-01-18T04:55:06.770Z,4.86
2023-01-18T04:56:06.780Z,4.78
2023-01-18T04:57:06.826Z,4.78
2023-01-18T04:58:06.740Z,4.82
2023-01-18T04:59:06.758Z,4.80
2023-01-18T05:00:08.695Z,4.75
2023-01-18T05:01:06.780Z,4.97
2023-01-18T05:02:06.779Z,4.93
2023-01-18T05:03:06.706Z,4.93
2023-01-18T05:04:06.705Z,4.86
2023-01-18T05:05:06.696Z,4.93
2023-01-18T05:06:06.663Z,4.93
2023-01-18T05:07:06.643Z,4.92
2023-01-18T05:08:06.646Z,4.90
2023-01-18T05:09:06.628Z,4.86
2023-01-18T05:10:06.656Z,4.90
2023-01-18T05:11:06.647Z,4.94
2023-01-18T05:12:06.597Z,4.89
2023-01-18T05:13:06.614Z,4.99
2023-01-18T05:14:06.575Z,4.96
2023-01-18T05:15:06.580Z,4.94
2023-01-18T05:16:06.654Z,5.05
2023-01-18T05:17:06.537Z,5.02
2023-01-18T05:18:06.536Z,5.05
2023-01-18T05:19:06.545Z,5.05
2023-01-18T05:20:06.527Z,5.07
2023-01-18T05:21:06.492Z,5.21
2023-01-18T05:22:06.484Z,5.12
2023-01-18T05:23:06.506Z,5.17
2023-01-18T05:24:06.462Z,5.10
2023-01-18T05:25:06.466Z,5.17
2023-01-18T05:26:06.445Z,5.25
2023-01-18T05:27:06.439Z,5.25
2023-01-18T05:28:06.430Z,5.25
2023-01-18T05:29:06.442Z,5.20
2023-01-18T05:30:06.986Z,5.25
2023-01-18T05:31:06.411Z,5.36
2023-01-18T05:32:06.388Z,5.26
2023-01-18T05:33:06.375Z,5.25
2023-01-18T05:34:06.393Z,5.36
2023-01-18T05:35:06.342Z,5.36
2023-01-18T05:36:06.359Z,5.35
2023-01-18T05:37:06.334Z,5.33
2023-01-18T05:38:06.320Z,5.30
2023-01-18T05:39:06.309Z,5.28
2023-01-18T05:40:06.320Z,5.38
2023-01-18T05:41:06.285Z,5.44
2023-01-18T05:42:06.301Z,5.44
2023-01-18T05:43:06.261Z,5.35
2023-01-18T05:44:06.261Z,5.38
2023-01-18T05:45:06.296Z,5.41
2023-01-18T05:46:06.374Z,5.44
2023-01-18T05:47:06.224Z,5.44
2023-01-18T05:48:06.230Z,5.38
2023-01-18T05:49:06.225Z,5.41
2023-01-18T05:50:06.190Z,5.36
2023-01-18T05:51:06.198Z,5.38
2023-01-18T05:52:06.218Z,5.36
2023-01-18T05:53:06.198Z,5.35
2023-01-18T05:54:06.156Z,5.35
2023-01-18T05:55:06.141Z,5.39
2023-01-18T05:56:06.159Z,5.35
2023-01-18T05:57:06.109Z,5.43
2023-01-18T05:58:06.108Z,5.43
2023-01-18T05:59:06.085Z,5.43
2023-01-18T06:00:06.082Z,5.35
2023-01-18T06:01:06.111Z,5.38
2023-01-18T06:02:06.155Z,5.36
2023-01-18T06:03:06.044Z,5.36
2023-01-18T06:04:06.092Z,5.35
2023-01-18T06:05:06.024Z,5.32
2023-01-18T06:06:06.053Z,5.41
2023-01-18T06:07:06.049Z,5.35
2023-01-18T06:08:06.016Z,5.32
2023-01-18T06:09:05.993Z,5.38
2023-01-18T06:10:05.968Z,5.38
2023-01-18T06:11:05.965Z,5.38
2023-01-18T06:12:05.982Z,5.38
2023-01-18T06:13:05.949Z,5.38
2023-01-18T06:14:05.939Z,5.35
2023-01-18T06:15:05.913Z,5.35
2023-01-18T06:16:06.006Z,5.35
2023-01-18T06:17:05.932Z,5.38
2023-01-18T06:18:05.894Z,5.36
2023-01-18T06:19:05.931Z,5.36
2023-01-18T06:20:05.871Z,5.35
2023-01-18T06:21:05.874Z,5.35
2023-01-18T06:22:05.849Z,5.29
2023-01-18T06:23:05.866Z,5.35
2023-01-18T06:24:05.875Z,5.30
2023-01-18T06:25:05.823Z,5.35
2023-01-18T06:26:05.811Z,5.30
2023-01-18T06:27:05.794Z,5.30
2023-01-18T06:28:05.806Z,5.38
2023-01-18T06:29:05.775Z,5.30
2023-01-18T06:30:05.764Z,5.30
2023-01-18T06:31:05.760Z,5.32
2023-01-18T06:32:05.759Z,5.32
2023-01-18T06:33:05.731Z,5.35
2023-01-18T06:34:05.735Z,5.38
2023-01-18T06:35:05.713Z,5.44
2023-01-18T06:36:05.697Z,5.41
2023-01-18T06:37:05.700Z,5.36
2023-01-18T06:38:05.703Z,5.29
2023-01-18T06:39:05.681Z,5.35
2023-01-18T06:40:05.878Z,5.33
2023-01-18T06:41:05.647Z,5.32
2023-01-18T06:42:05.659Z,5.25
2023-01-18T06:43:05.622Z,5.32
2023-01-18T06:44:05.649Z,5.35
2023-01-18T06:45:05.615Z,5.30
2023-01-18T06:46:05.712Z,5.29
2023-01-18T06:47:05.629Z,5.23
2023-01-18T06:48:05.575Z,5.29
2023-01-18T06:49:05.563Z,5.26
2023-01-18T06:50:05.569Z,5.32
2023-01-18T06:51:05.605Z,5.33
2023-01-18T06:52:05.533Z,5.23
2023-01-18T06:53:05.526Z,5.18
2023-01-18T06:54:05.561Z,5.26
2023-01-18T06:55:05.505Z,5.29
2023-01-18T06:56:05.504Z,5.26
2023-01-18T06:57:05.552Z,5.26
2023-01-18T06:58:05.465Z,5.14
2023-01-18T06:59:08.315Z,5.14
2023-01-18T07:00:05.439Z,5.14
2023-01-18T07:01:05.591Z,5.20
2023-01-18T07:02:05.532Z,5.18
2023-01-18T07:03:05.413Z,5.20
2023-01-18T07:04:05.452Z,5.14
2023-01-18T07:05:05.400Z,5.10
2023-01-18T07:06:05.373Z,5.14
2023-01-18T07:07:05.384Z,5.14
2023-01-18T07:08:05.381Z,5.11
2023-01-18T07:09:05.378Z,5.11
2023-01-18T07:10:05.338Z,5.12
2023-01-18T07:11:05.317Z,5.12
2023-01-18T07:12:05.335Z,5.14
2023-01-18T07:13:05.322Z,5.10
2023-01-18T07:14:05.295Z,5.10
2023-01-18T07:15:20.543Z,5.11
2023-01-18T07:16:06.262Z,5.17
2023-01-18T07:17:05.284Z,5.14
2023-01-18T07:18:05.254Z,5.08
2023-01-18T07:19:05.256Z,5.11
2023-01-18T07:20:05.233Z,5.14
2023-01-18T07:21:05.232Z,5.05
2023-01-18T07:22:05.217Z,5.07
2023-01-18T07:23:05.194Z,5.10
2023-01-18T07:24:05.211Z,5.07
2023-01-18T07:25:05.184Z,5.15
2023-01-18T07:26:05.168Z,4.99
2023-01-18T07:27:05.176Z,5.14
2023-01-18T07:28:05.158Z,5.10
2023-01-18T07:29:05.157Z,5.08
2023-01-18T07:30:05.130Z,5.11
2023-01-18T07:31:05.121Z,5.10
2023-01-18T07:32:05.150Z,5.05
2023-01-18T07:33:05.085Z,5.08
2023-01-18T07:34:05.098Z,5.12
2023-01-18T07:35:05.070Z,5.11
2023-01-18T07:36:05.064Z,5.07
2023-01-18T07:37:05.049Z,5.05
2023-01-18T07:38:05.035Z,5.10
2023-01-18T07:39:05.036Z,5.12
2023-01-18T07:40:05.034Z,5.07
2023-01-18T07:41:05.012Z,5.08
2023-01-18T07:42:05.015Z,5.05
2023-01-18T07:43:05.002Z,5.12
2023-01-18T07:44:05.003Z,5.10
2023-01-18T07:45:04.966Z,5.11
2023-01-18T07:46:05.045Z,5.12
2023-01-18T07:47:04.960Z,5.12
2023-01-18T07:48:05.006Z,5.12
2023-01-18T07:49:04.974Z,5.15
2023-01-18T07:50:04.928Z,5.15
2023-01-18T07:51:04.909Z,5.15
2023-01-18T07:52:04.888Z,5.17
2023-01-18T07:53:04.912Z,5.26
2023-01-18T07:54:04.900Z,5.18
2023-01-18T07:55:06.783Z,5.23
2023-01-18T07:56:04.886Z,5.26
2023-01-18T07:57:04.849Z,5.21
2023-01-18T07:58:04.915Z,5.25
2023-01-18T07:59:04.826Z,5.28
2023-01-18T08:00:04.918Z,5.29
2023-01-18T08:01:04.842Z,5.33
2023-01-18T08:02:04.820Z,5.32
2023-01-18T08:03:05.284Z,5.30
2023-01-18T08:04:04.811Z,5.33
2023-01-18T08:05:04.800Z,5.38
2023-01-18T08:06:04.740Z,5.39
2023-01-18T08:07:04.746Z,5.38
2023-01-18T08:08:04.739Z,5.32
2023-01-18T08:09:04.707Z,5.30
2023-01-18T08:10:04.704Z,5.29
2023-01-18T08:11:04.699Z,5.35
2023-01-18T08:12:04.704Z,5.32
2023-01-18T08:13:04.711Z,5.35
2023-01-18T08:14:04.665Z,5.38
2023-01-18T08:15:04.667Z,5.39
2023-01-18T08:16:04.761Z,5.38
2023-01-18T08:17:04.635Z,5.46
2023-01-18T08:18:04.635Z,5.53
2023-01-18T08:19:04.599Z,5.51
2023-01-18T08:20:13.518Z,5.61
2023-01-18T08:21:04.586Z,5.62
2023-01-18T08:22:04.584Z,5.54
2023-01-18T08:23:04.570Z,5.62
2023-01-18T08:24:04.549Z,5.66
2023-01-18T08:25:04.557Z,5.68
2023-01-18T08:26:04.532Z,5.65
2023-01-18T08:27:04.535Z,5.65
2023-01-18T08:28:04.518Z,5.76
2023-01-18T08:29:04.508Z,5.73
2023-01-18T08:30:04.488Z,5.76
2023-01-18T08:31:04.552Z,5.72
2023-01-18T08:32:04.499Z,5.82
2023-01-18T08:33:04.453Z,5.66
2023-01-18T08:34:04.437Z,5.76
2023-01-18T08:35:04.434Z,5.73
2023-01-18T08:36:04.409Z,5.75
2023-01-18T08:37:04.430Z,5.80
2023-01-18T08:38:04.423Z,5.76
2023-01-18T08:39:04.436Z,5.75
2023-01-18T08:40:04.379Z,5.79
2023-01-18T08:41:04.409Z,5.83
2023-01-18T08:42:04.357Z,5.89
2023-01-18T08:43:04.369Z,5.86
2023-01-18T08:44:04.335Z,5.79
2023-01-18T08:45:04.325Z,5.79
2023-01-18T08:46:04.349Z,5.87
2023-01-18T08:47:04.311Z,5.86
2023-01-18T08:48:04.307Z,5.83
2023-01-18T08:49:04.282Z,5.91
2023-01-18T08:50:04.263Z,5.94
2023-01-18T08:51:04.273Z,5.90
2023-01-18T08:52:04.284Z,5.98
2023-01-18T08:53:04.249Z,5.98
2023-01-18T08:54:04.222Z,6.05
2023-01-18T08:55:04.226Z,6.05
2023-01-18T08:56:04.229Z,6.07
2023-01-18T08:57:05.025Z,6.08
2023-01-18T08:58:04.197Z,6.19
2023-01-18T08:59:04.223Z,6.16
2023-01-18T09:00:04.175Z,6.11
2023-01-18T09:01:04.183Z,6.19
2023-01-18T09:02:04.589Z,6.19
2023-01-18T09:03:04.596Z,6.09
2023-01-18T09:04:04.152Z,6.17
2023-01-18T09:05:04.125Z,6.24
2023-01-18T09:06:04.101Z,6.17
2023-01-18T09:07:04.120Z,6.17
2023-01-18T09:08:04.080Z,6.20
2023-01-18T09:09:04.068Z,6.12
2023-01-18T09:10:04.048Z,6.09
2023-01-18T09:11:04.054Z,6.11
2023-01-18T09:12:04.035Z,6.17
2023-01-18T09:13:04.053Z,6.20
2023-01-18T09:14:04.012Z,6.27
2023-01-18T09:15:03.997Z,6.19
2023-01-18T09:16:04.049Z,6.27
2023-01-18T09:17:03.983Z,6.31
2023-01-18T09:18:03.979Z,6.28
2023-01-18T09:19:03.957Z,6.28
2023-01-18T09:20:04.021Z,6.27
2023-01-18T09:21:03.944Z,6.28
2023-01-18T09:22:03.938Z,6.24
2023-01-18T09:23:03.945Z,6.30
2023-01-18T09:24:03.912Z,6.27
2023-01-18T09:25:03.901Z,6.26
2023-01-18T09:26:03.889Z,6.31
2023-01-18T09:27:03.875Z,6.33
2023-01-18T09:28:03.872Z,6.38
2023-01-18T09:29:03.871Z,6.33
2023-01-18T09:30:03.850Z,6.38
2023-01-18T09:31:03.900Z,6.33
2023-01-18T09:32:03.829Z,6.49
2023-01-18T09:33:03.823Z,6.54
2023-01-18T09:34:18.541Z,6.63
2023-01-18T09:35:04.841Z,6.52
2023-01-18T09:36:03.799Z,6.54
2023-01-18T09:37:03.778Z,6.64
2023-01-18T09:38:03.759Z,6.67
2023-01-18T09:39:03.746Z,6.64
2023-01-18T09:40:03.743Z,6.75
2023-01-18T09:41:03.752Z,6.74
2023-01-18T09:42:03.712Z,6.67
2023-01-18T09:43:03.711Z,6.77
2023-01-18T09:44:03.702Z,6.82
2023-01-18T09:45:03.689Z,6.87
2023-01-18T09:46:03.696Z,6.82
2023-01-18T09:47:03.684Z,6.88
2023-01-18T09:48:03.645Z,6.96
2023-01-18T09:49:03.643Z,6.99
2023-01-18T09:50:03.634Z,7.00
2023-01-18T09:51:03.628Z,6.99
2023-01-18T09:52:03.651Z,7.07
2023-01-18T09:53:03.647Z,7.10
2023-01-18T09:54:03.596Z,7.14
2023-01-18T09:55:03.573Z,7.14
2023-01-18T09:56:03.574Z,7.10
2023-01-18T09:57:03.556Z,7.10
2023-01-18T09:58:03.559Z,7.15
2023-01-18T09:59:03.549Z,7.21
2023-01-18T10:00:03.521Z,7.21
2023-01-18T10:01:03.631Z,7.24
2023-01-18T10:02:03.649Z,7.21
2023-01-18T10:03:03.494Z,7.24
2023-01-18T10:04:03.500Z,7.32
2023-01-18T10:05:03.471Z,7.29
2023-01-18T10:06:03.459Z,7.35
2023-01-18T10:07:03.448Z,7.38
2023-01-18T10:08:03.461Z,7.39
2023-01-18T10:09:03.424Z,7.33
2023-01-18T10:10:03.427Z,7.42
2023-01-18T10:11:03.403Z,7.38
2023-01-18T10:12:03.424Z,7.33
2023-01-18T10:13:03.371Z,7.36
2023-01-18T10:14:03.385Z,7.39
2023-01-18T10:15:03.357Z,7.36
2023-01-18T10:16:03.503Z,7.39
2023-01-18T10:17:03.342Z,7.40
2023-01-18T10:18:03.336Z,7.42
2023-01-18T10:19:03.315Z,7.40
2023-01-18T10:20:03.316Z,7.48
2023-01-18T10:21:03.297Z,7.39
2023-01-18T10:22:03.277Z,7.48
2023-01-18T10:23:03.264Z,7.43
2023-01-18T10:24:03.297Z,7.43
2023-01-18T10:25:03.260Z,7.48
2023-01-18T10:26:03.245Z,7.47
2023-01-18T10:27:03.236Z,7.48
2023-01-18T10:28:03.224Z,7.56
2023-01-18T10:29:03.205Z,7.53
2023-01-18T10:30:03.191Z,7.56
2023-01-18T10:31:03.213Z,7.53
2023-01-18T10:32:03.177Z,7.56
2023-01-18T10:33:03.193Z,7.51
2023-01-18T10:34:03.156Z,7.42
2023-01-18T10:35:03.139Z,7.47
2023-01-18T10:36:03.127Z,7.39
2023-01-18T10:37:03.116Z,7.35
2023-01-18T10:38:03.142Z,7.28
2023-01-18T10:39:03.109Z,7.31
2023-01-18T10:40:03.123Z,7.18
2023-01-18T10:41:03.071Z,7.15
2023-01-18T10:42:05.917Z,7.20
2023-01-18T10:43:03.077Z,7.10
2023-01-18T10:44:03.053Z,7.11
2023-01-18T10:45:03.042Z,7.07
2023-01-18T10:46:03.127Z,6.99
2023-01-18T10:47:03.020Z,7.03
2023-01-18T10:48:02.994Z,6.97
2023-01-18T10:49:03.010Z,7.06
2023-01-18T10:50:03.012Z,7.02
2023-01-18T10:51:03.013Z,6.96
2023-01-18T10:52:02.961Z,6.97
2023-01-18T10:53:02.942Z,6.93
2023-01-18T10:54:02.941Z,6.93
2023-01-18T10:55:02.928Z,6.96
2023-01-18T10:56:02.953Z,6.99
2023-01-18T10:57:02.931Z,6.95
2023-01-18T10:58:02.895Z,6.93
2023-01-18T10:59:02.908Z,6.96
2023-01-18T11:00:02.867Z,6.99
2023-01-18T11:01:02.979Z,6.88
2023-01-18T11:02:03.085Z,6.82
2023-01-18T11:03:02.846Z,6.93
2023-01-18T11:04:02.852Z,6.93
2023-01-18T11:05:02.817Z,6.93
2023-01-18T11:06:02.799Z,6.84
2023-01-18T11:07:02.816Z,6.84
2023-01-18T11:08:02.827Z,6.82
2023-01-18T11:09:02.777Z,6.85
2023-01-18T11:10:02.765Z,6.87
2023-01-18T11:11:02.756Z,6.85
2023-01-18T11:12:02.762Z,6.84
2023-01-18T11:13:02.755Z,6.85
2023-01-18T11:14:02.722Z,6.81
2023-01-18T11:15:02.704Z,6.88
2023-01-18T11:16:02.770Z,6.84
2023-01-18T11:17:02.706Z,6.89
2023-01-18T11:18:02.670Z,6.84
2023-01-18T11:19:02.657Z,6.78
2023-01-18T11:20:02.651Z,6.81
2023-01-18T11:21:02.702Z,6.93
2023-01-18T11:22:02.633Z,6.89
2023-01-18T11:23:03.184Z,6.99
2023-01-18T11:24:02.612Z,6.92
2023-01-18T11:25:02.620Z,6.87
2023-01-18T11:26:02.615Z,6.93
2023-01-18T11:27:02.584Z,6.95
2023-01-18T11:28:02.595Z,6.85
2023-01-18T11:29:02.568Z,6.92
2023-01-18T11:30:02.559Z,6.89
2023-01-18T11:31:02.567Z,6.93
2023-01-18T11:32:02.600Z,6.84
2023-01-18T11:33:02.524Z,6.88
2023-01-18T11:34:02.511Z,6.84
2023-01-18T11:35:02.501Z,6.89
2023-01-18T11:36:02.535Z,6.79
2023-01-18T11:37:02.485Z,6.84
2023-01-18T11:38:03.064Z,6.85
2023-01-18T11:39:02.475Z,6.79
2023-01-18T11:40:02.429Z,6.82
2023-01-18T11:41:02.430Z,6.84
2023-01-18T11:42:02.438Z,6.81
2023-01-18T11:43:02.405Z,6.81
2023-01-18T11:44:02.413Z,6.85
2023-01-18T11:45:02.399Z,6.82
2023-01-18T11:46:02.389Z,6.81
2023-01-18T11:47:02.395Z,6.81
2023-01-18T11:48:02.840Z,6.85
2023-01-18T11:49:02.348Z,6.82
2023-01-18T11:50:13.511Z,6.85
2023-01-18T11:51:03.319Z,6.79
2023-01-18T11:52:02.341Z,6.87
2023-01-18T11:53:02.338Z,6.85
2023-01-18T11:54:02.280Z,6.78
2023-01-18T11:55:02.281Z,6.79
2023-01-18T11:56:02.260Z,6.87
2023-01-18T11:57:02.254Z,6.81
2023-01-18T11:58:02.832Z,6.77
2023-01-18T11:59:02.257Z,6.79
2023-01-18T12:00:02.248Z,6.81
2023-01-18T12:01:02.238Z,6.85
2023-01-18T12:02:02.280Z,6.77
2023-01-18T12:03:02.212Z,6.81
2023-01-18T12:04:02.211Z,6.81
2023-01-18T12:05:02.177Z,6.78
2023-01-18T12:06:02.158Z,6.77
2023-01-18T12:07:02.150Z,6.78
2023-01-18T12:08:02.245Z,6.75
2023-01-18T12:09:02.150Z,6.79
2023-01-18T12:10:02.113Z,6.82
2023-01-18T12:11:02.135Z,6.77
2023-01-18T12:12:17.901Z,6.79
2023-01-18T12:13:03.110Z,6.75
2023-01-18T12:14:02.086Z,6.78
2023-01-18T12:15:02.079Z,6.79
2023-01-18T12:16:02.090Z,6.78
2023-01-18T12:17:02.068Z,6.78
2023-01-18T12:18:12.980Z,6.75
2023-01-18T12:19:03.051Z,6.75
2023-01-18T12:20:02.016Z,6.81
2023-01-18T12:21:02.001Z,6.78
2023-01-18T12:22:02.100Z,6.79
2023-01-18T12:23:01.974Z,6.79
2023-01-18T12:24:01.952Z,6.66
2023-01-18T12:25:01.960Z,6.74
2023-01-18T12:26:11.747Z,6.75
2023-01-18T12:27:02.936Z,6.63
2023-01-18T12:28:02.272Z,6.72
2023-01-18T12:29:01.912Z,6.64
2023-01-18T12:30:01.897Z,6.74
2023-01-18T12:31:01.920Z,6.66
2023-01-18T12:32:01.916Z,6.66
2023-01-18T12:33:01.864Z,6.79
2023-01-18T12:34:01.851Z,6.77
2023-01-18T12:35:01.860Z,6.74
2023-01-18T12:36:01.861Z,6.75
2023-01-18T12:37:01.829Z,6.78
2023-01-18T12:38:02.178Z,6.60
2023-01-18T12:39:01.800Z,6.74
2023-01-18T12:40:01.795Z,6.62
2023-01-18T12:41:01.827Z,6.70
2023-01-18T12:42:01.778Z,6.67
2023-01-18T12:43:01.763Z,6.69
2023-01-18T12:44:01.751Z,6.72
2023-01-18T12:45:01.736Z,6.67
2023-01-18T12:46:01.774Z,6.77
2023-01-18T12:47:01.707Z,6.75
2023-01-18T12:48:02.156Z,6.72
2023-01-18T12:49:01.696Z,6.67
2023-01-18T12:50:01.707Z,6.66
2023-01-18T12:51:01.671Z,6.69
2023-01-18T12:52:17.645Z,6.75
2023-01-18T12:53:02.649Z,6.77
2023-01-18T12:54:01.645Z,6.67
2023-01-18T12:55:01.637Z,6.63
2023-01-18T12:56:03.959Z,6.63
2023-01-18T12:57:01.636Z,6.59
2023-01-18T12:58:02.175Z,6.66
2023-01-18T12:59:01.590Z,6.60
2023-01-18T13:00:01.603Z,6.59
2023-01-18T13:01:01.671Z,6.57
2023-01-18T13:02:01.605Z,6.59
2023-01-18T13:03:01.557Z,6.63
2023-01-18T13:04:01.648Z,6.63
2023-01-18T13:05:01.547Z,6.63
2023-01-18T13:06:01.527Z,6.57
2023-01-18T13:07:01.492Z,6.59
2023-01-18T13:08:01.857Z,6.63
2023-01-18T13:09:01.482Z,6.69
2023-01-18T13:10:01.471Z,6.62
2023-01-18T13:11:01.459Z,6.62
2023-01-18T13:12:01.492Z,6.56
2023-01-18T13:13:01.470Z,6.60
2023-01-18T13:14:01.455Z,6.60
2023-01-18T13:15:01.412Z,6.69
2023-01-18T13:16:01.481Z,6.56
2023-01-18T13:17:01.395Z,6.54
2023-01-18T13:18:01.773Z,6.57